sensor_id;sensor_type;location;lat;lon;timestamp;P1;durP1;ratioP1;P2;durP2;ratioP2
47329;SDS011;33060;50.178;7.570;2024-02-04T00:00:54;2.65;;;1.00;;
47329;SDS011;33060;50.178;7.570;2024-02-04T00:03:20;2.20;;;0.75;;
47329;SDS011;33060;50.178;7.570;2024-02-04T00:05:50;2.58;;;1.00;;
47329;SDS011;33060;50.178;7.570;2024-02-04T00:08:17;3.17;;;0.90;;
47329;SDS011;33060;50.178;7.570;2024-02-04T00:10:44;1.98;;;0.60;;
47329;SDS011;33060;50.178;7.570;2024-02-04T00:13:10;2.55;;;0.98;;
47329;SDS011;33060;50.178;7.570;2024-02-04T00:15:37;2.47;;;0.77;;
47329;SDS011;33060;50.178;7.570;2024-02-04T00:18:04;2.17;;;0.70;;
47329;SDS011;33060;50.178;7.570;2024-02-04T00:20:31;2.40;;;0.57;;
47329;SDS011;33060;50.178;7.570;2024-02-04T00:22:59;2.22;;;0.70;;
47329;SDS011;33060;50.178;7.570;2024-02-04T00:25:25;2.30;;;0.60;;
47329;SDS011;33060;50.178;7.570;2024-02-04T00:30:19;2.22;;;0.60;;
47329;SDS011;33060;50.178;7.570;2024-02-04T00:35:12;1.90;;;0.50;;
47329;SDS011;33060;50.178;7.570;2024-02-04T00:37:39;2.10;;;0.77;;
47329;SDS011;33060;50.178;7.570;2024-02-04T00:40:06;1.95;;;0.73;;
47329;SDS011;33060;50.178;7.570;2024-02-04T00:42:33;1.88;;;0.50;;
47329;SDS011;33060;50.178;7.570;2024-02-04T00:45:00;2.00;;;0.52;;
47329;SDS011;33060;50.178;7.570;2024-02-04T00:47:27;3.15;;;0.90;;
47329;SDS011;33060;50.178;7.570;2024-02-04T00:49:54;2.17;;;0.77;;
47329;SDS011;33060;50.178;7.570;2024-02-04T00:52:21;1.98;;;0.50;;
47329;SDS011;33060;50.178;7.570;2024-02-04T00:54:47;2.00;;;0.60;;
47329;SDS011;33060;50.178;7.570;2024-02-04T00:57:14;1.70;;;0.50;;
47329;SDS011;33060;50.178;7.570;2024-02-04T01:02:08;2.20;;;0.88;;
47329;SDS011;33060;50.178;7.570;2024-02-04T01:04:34;2.78;;;0.80;;
47329;SDS011;33060;50.178;7.570;2024-02-04T01:07:02;3.30;;;1.10;;
47329;SDS011;33060;50.178;7.570;2024-02-04T01:09:28;2.25;;;0.65;;
47329;SDS011;33060;50.178;7.570;2024-02-04T01:11:56;2.10;;;0.80;;
47329;SDS011;33060;50.178;7.570;2024-02-04T01:14:23;2.10;;;0.60;;
47329;SDS011;33060;50.178;7.570;2024-02-04T01:16:50;2.13;;;0.47;;
47329;SDS011;33060;50.178;7.570;2024-02-04T01:19:16;2.78;;;0.73;;
47329;SDS011;33060;50.178;7.570;2024-02-04T01:21:43;2.10;;;0.60;;
47329;SDS011;33060;50.178;7.570;2024-02-04T01:24:11;2.08;;;0.70;;
47329;SDS011;33060;50.178;7.570;2024-02-04T01:26:38;2.03;;;0.60;;
47329;SDS011;33060;50.178;7.570;2024-02-04T01:29:04;2.10;;;0.60;;
47329;SDS011;33060;50.178;7.570;2024-02-04T01:31:32;3.15;;;0.95;;
47329;SDS011;33060;50.178;7.570;2024-02-04T01:33:59;2.50;;;1.08;;
47329;SDS011;33060;50.178;7.570;2024-02-04T01:36:26;3.05;;;1.15;;
47329;SDS011;33060;50.178;7.570;2024-02-04T01:38:54;2.22;;;1.00;;
47329;SDS011;33060;50.178;7.570;2024-02-04T01:41:20;2.00;;;0.68;;
47329;SDS011;33060;50.178;7.570;2024-02-04T01:46:14;4.47;;;1.00;;
47329;SDS011;33060;50.178;7.570;2024-02-04T01:51:07;2.80;;;0.40;;
47329;SDS011;33060;50.178;7.570;2024-02-04T01:56:02;3.00;;;1.05;;
47329;SDS011;33060;50.178;7.570;2024-02-04T01:58:30;2.53;;;1.02;;
47329;SDS011;33060;50.178;7.570;2024-02-04T02:00:57;2.47;;;0.80;;
47329;SDS011;33060;50.178;7.570;2024-02-04T02:03:24;2.30;;;0.98;;
47329;SDS011;33060;50.178;7.570;2024-02-04T02:05:52;2.30;;;0.65;;
47329;SDS011;33060;50.178;7.570;2024-02-04T02:10:47;2.05;;;0.57;;
47329;SDS011;33060;50.178;7.570;2024-02-04T02:13:16;2.28;;;0.77;;
47329;SDS011;33060;50.178;7.570;2024-02-04T02:15:50;2.53;;;1.10;;
47329;SDS011;33060;50.178;7.570;2024-02-04T02:18:27;2.50;;;0.98;;
47329;SDS011;33060;50.178;7.570;2024-02-04T02:26:41;2.03;;;0.47;;
47329;SDS011;33060;50.178;7.570;2024-02-04T02:29:08;1.80;;;0.60;;
47329;SDS011;33060;50.178;7.570;2024-02-04T02:31:35;2.55;;;0.80;;
47329;SDS011;33060;50.178;7.570;2024-02-04T02:34:14;2.25;;;0.60;;
47329;SDS011;33060;50.178;7.570;2024-02-04T02:36:45;2.10;;;0.45;;
47329;SDS011;33060;50.178;7.570;2024-02-04T02:39:21;2.03;;;0.57;;
47329;SDS011;33060;50.178;7.570;2024-02-04T02:41:51;2.03;;;0.73;;
47329;SDS011;33060;50.178;7.570;2024-02-04T02:44:23;1.90;;;0.60;;
47329;SDS011;33060;50.178;7.570;2024-02-04T02:46:54;3.33;;;0.70;;
47329;SDS011;33060;50.178;7.570;2024-02-04T02:49:23;1.80;;;0.40;;
47329;SDS011;33060;50.178;7.570;2024-02-04T02:51:50;2.78;;;0.88;;
47329;SDS011;33060;50.178;7.570;2024-02-04T02:54:17;2.45;;;0.40;;
47329;SDS011;33060;50.178;7.570;2024-02-04T02:56:44;1.92;;;0.57;;
47329;SDS011;33060;50.178;7.570;2024-02-04T02:59:11;1.58;;;0.40;;
47329;SDS011;33060;50.178;7.570;2024-02-04T03:01:40;1.70;;;0.40;;
47329;SDS011;33060;50.178;7.570;2024-02-04T03:04:07;1.80;;;0.43;;
47329;SDS011;33060;50.178;7.570;2024-02-04T03:06:34;1.45;;;0.40;;
47329;SDS011;33060;50.178;7.570;2024-02-04T03:09:01;1.90;;;0.10;;
47329;SDS011;33060;50.178;7.570;2024-02-04T03:11:28;1.20;;;0.28;;
47329;SDS011;33060;50.178;7.570;2024-02-04T03:13:54;1.38;;;0.32;;
47329;SDS011;33060;50.178;7.570;2024-02-04T03:18:48;1.75;;;0.30;;
47329;SDS011;33060;50.178;7.570;2024-02-04T03:21:15;1.80;;;0.30;;
47329;SDS011;33060;50.178;7.570;2024-02-04T03:23:42;1.85;;;0.20;;
47329;SDS011;33060;50.178;7.570;2024-02-04T03:26:10;1.25;;;0.25;;
47329;SDS011;33060;50.178;7.570;2024-02-04T03:28:37;1.10;;;0.10;;
47329;SDS011;33060;50.178;7.570;2024-02-04T03:31:04;1.38;;;0.20;;
47329;SDS011;33060;50.178;7.570;2024-02-04T03:35:58;1.20;;;0.15;;
47329;SDS011;33060;50.178;7.570;2024-02-04T03:40:52;0.93;;;0.20;;
47329;SDS011;33060;50.178;7.570;2024-02-04T03:43:19;0.77;;;0.10;;
47329;SDS011;33060;50.178;7.570;2024-02-04T03:45:46;0.77;;;0.10;;
47329;SDS011;33060;50.178;7.570;2024-02-04T03:48:13;1.10;;;0.10;;
47329;SDS011;33060;50.178;7.570;2024-02-04T03:53:06;1.75;;;0.30;;
47329;SDS011;33060;50.178;7.570;2024-02-04T03:55:33;1.05;;;0.13;;
47329;SDS011;33060;50.178;7.570;2024-02-04T04:00:27;1.25;;;0.10;;
47329;SDS011;33060;50.178;7.570;2024-02-04T04:02:53;1.50;;;0.10;;
47329;SDS011;33060;50.178;7.570;2024-02-04T04:05:20;0.98;;;0.28;;
47329;SDS011;33060;50.178;7.570;2024-02-04T04:10:13;0.88;;;0.13;;
47329;SDS011;33060;50.178;7.570;2024-02-04T04:15:07;1.23;;;0.20;;
47329;SDS011;33060;50.178;7.570;2024-02-04T04:20:00;0.80;;;0.10;;
47329;SDS011;33060;50.178;7.570;2024-02-04T04:22:27;1.20;;;0.10;;
47329;SDS011;33060;50.178;7.570;2024-02-04T04:24:54;1.50;;;0.20;;
47329;SDS011;33060;50.178;7.570;2024-02-04T04:29:48;1.27;;;0.10;;
47329;SDS011;33060;50.178;7.570;2024-02-04T04:32:14;1.00;;;0.10;;
47329;SDS011;33060;50.178;7.570;2024-02-04T04:34:41;0.88;;;0.10;;
47329;SDS011;33060;50.178;7.570;2024-02-04T04:37:08;1.20;;;0.00;;
47329;SDS011;33060;50.178;7.570;2024-02-04T04:39:35;1.63;;;0.22;;
47329;SDS011;33060;50.178;7.570;2024-02-04T04:42:02;1.75;;;0.30;;
47329;SDS011;33060;50.178;7.570;2024-02-04T04:44:28;0.73;;;0.10;;
47329;SDS011;33060;50.178;7.570;2024-02-04T04:46:55;1.00;;;0.20;;
47329;SDS011;33060;50.178;7.570;2024-02-04T04:49:22;0.80;;;0.10;;
47329;SDS011;33060;50.178;7.570;2024-02-04T04:54:15;0.90;;;0.10;;
47329;SDS011;33060;50.178;7.570;2024-02-04T04:56:42;0.80;;;0.30;;
47329;SDS011;33060;50.178;7.570;2024-02-04T04:59:09;0.90;;;0.10;;
47329;SDS011;33060;50.178;7.570;2024-02-04T05:01:36;1.00;;;0.10;;
47329;SDS011;33060;50.178;7.570;2024-02-04T05:04:03;1.13;;;0.00;;
47329;SDS011;33060;50.178;7.570;2024-02-04T05:06:30;0.90;;;0.20;;
47329;SDS011;33060;50.178;7.570;2024-02-04T05:11:24;1.05;;;0.13;;
47329;SDS011;33060;50.178;7.570;2024-02-04T05:13:50;1.13;;;0.10;;
47329;SDS011;33060;50.178;7.570;2024-02-04T05:16:17;0.82;;;0.10;;
47329;SDS011;33060;50.178;7.570;2024-02-04T05:18:44;0.85;;;0.25;;
47329;SDS011;33060;50.178;7.570;2024-02-04T05:21:11;1.20;;;0.10;;
47329;SDS011;33060;50.178;7.570;2024-02-04T05:23:38;0.90;;;0.10;;
47329;SDS011;33060;50.178;7.570;2024-02-04T05:26:04;0.90;;;0.10;;
47329;SDS011;33060;50.178;7.570;2024-02-04T05:28:31;0.82;;;0.25;;
47329;SDS011;33060;50.178;7.570;2024-02-04T05:30:58;0.80;;;0.00;;
47329;SDS011;33060;50.178;7.570;2024-02-04T05:33:27;1.35;;;0.20;;
47329;SDS011;33060;50.178;7.570;2024-02-04T05:35:54;0.98;;;0.10;;
47329;SDS011;33060;50.178;7.570;2024-02-04T05:38:21;1.00;;;0.30;;
47329;SDS011;33060;50.178;7.570;2024-02-04T05:40:48;1.10;;;0.20;;
47329;SDS011;33060;50.178;7.570;2024-02-04T05:43:15;0.98;;;0.20;;
47329;SDS011;33060;50.178;7.570;2024-02-04T05:45:42;0.88;;;0.00;;
47329;SDS011;33060;50.178;7.570;2024-02-04T05:50:36;1.05;;;0.20;;
47329;SDS011;33060;50.178;7.570;2024-02-04T05:55:30;1.35;;;0.17;;
47329;SDS011;33060;50.178;7.570;2024-02-04T05:57:56;1.25;;;0.15;;
47329;SDS011;33060;50.178;7.570;2024-02-04T06:00:23;1.40;;;0.13;;
47329;SDS011;33060;50.178;7.570;2024-02-04T06:05:17;2.67;;;0.13;;
47329;SDS011;33060;50.178;7.570;2024-02-04T06:07:44;1.70;;;0.10;;
47329;SDS011;33060;50.178;7.570;2024-02-04T06:10:11;0.93;;;0.10;;
47329;SDS011;33060;50.178;7.570;2024-02-04T06:12:38;0.98;;;0.10;;
47329;SDS011;33060;50.178;7.570;2024-02-04T06:15:13;2.03;;;0.17;;
47329;SDS011;33060;50.178;7.570;2024-02-04T06:17:41;0.80;;;0.10;;
47329;SDS011;33060;50.178;7.570;2024-02-04T06:20:08;1.08;;;0.10;;
47329;SDS011;33060;50.178;7.570;2024-02-04T06:22:35;0.65;;;0.10;;
47329;SDS011;33060;50.178;7.570;2024-02-04T06:25:03;0.95;;;0.10;;
47329;SDS011;33060;50.178;7.570;2024-02-04T06:27:31;1.20;;;0.20;;
47329;SDS011;33060;50.178;7.570;2024-02-04T06:29:57;1.10;;;0.10;;
47329;SDS011;33060;50.178;7.570;2024-02-04T06:32:24;1.13;;;0.03;;
47329;SDS011;33060;50.178;7.570;2024-02-04T06:34:51;1.02;;;0.13;;
47329;SDS011;33060;50.178;7.570;2024-02-04T06:37:18;1.85;;;0.00;;
47329;SDS011;33060;50.178;7.570;2024-02-04T06:39:45;1.08;;;0.08;;
47329;SDS011;33060;50.178;7.570;2024-02-04T06:44:38;1.75;;;0.15;;
47329;SDS011;33060;50.178;7.570;2024-02-04T06:47:09;0.80;;;0.10;;
47329;SDS011;33060;50.178;7.570;2024-02-04T06:49:38;0.85;;;0.10;;
47329;SDS011;33060;50.178;7.570;2024-02-04T06:52:05;1.13;;;0.10;;
47329;SDS011;33060;50.178;7.570;2024-02-04T06:56:59;0.77;;;0.10;;
47329;SDS011;33060;50.178;7.570;2024-02-04T06:59:26;0.52;;;0.00;;
47329;SDS011;33060;50.178;7.570;2024-02-04T07:04:19;0.80;;;0.00;;
47329;SDS011;33060;50.178;7.570;2024-02-04T07:06:50;2.60;;;0.68;;
47329;SDS011;33060;50.178;7.570;2024-02-04T07:09:18;0.70;;;0.03;;
47329;SDS011;33060;50.178;7.570;2024-02-04T07:11:44;0.85;;;0.13;;
47329;SDS011;33060;50.178;7.570;2024-02-04T07:14:13;0.77;;;0.10;;
47329;SDS011;33060;50.178;7.570;2024-02-04T07:16:40;0.55;;;0.10;;
47329;SDS011;33060;50.178;7.570;2024-02-04T07:19:06;0.73;;;0.10;;
47329;SDS011;33060;50.178;7.570;2024-02-04T07:24:00;1.13;;;0.00;;
47329;SDS011;33060;50.178;7.570;2024-02-04T07:26:26;0.40;;;0.00;;
47329;SDS011;33060;50.178;7.570;2024-02-04T07:28:53;2.70;;;0.55;;
47329;SDS011;33060;50.178;7.570;2024-02-04T07:31:20;1.35;;;0.30;;
47329;SDS011;33060;50.178;7.570;2024-02-04T07:33:48;0.70;;;0.00;;
47329;SDS011;33060;50.178;7.570;2024-02-04T07:36:14;1.40;;;0.30;;
47329;SDS011;33060;50.178;7.570;2024-02-04T07:38:41;0.70;;;0.10;;
47329;SDS011;33060;50.178;7.570;2024-02-04T07:41:08;1.15;;;0.10;;
47329;SDS011;33060;50.178;7.570;2024-02-04T07:43:34;1.25;;;0.10;;
47329;SDS011;33060;50.178;7.570;2024-02-04T07:46:02;0.60;;;0.00;;
47329;SDS011;33060;50.178;7.570;2024-02-04T07:48:31;0.70;;;0.10;;
47329;SDS011;33060;50.178;7.570;2024-02-04T07:50:58;0.88;;;0.00;;
47329;SDS011;33060;50.178;7.570;2024-02-04T07:53:24;0.68;;;0.10;;
47329;SDS011;33060;50.178;7.570;2024-02-04T07:58:18;1.13;;;0.20;;
47329;SDS011;33060;50.178;7.570;2024-02-04T08:00:44;1.13;;;0.20;;
47329;SDS011;33060;50.178;7.570;2024-02-04T08:05:38;2.08;;;0.45;;
47329;SDS011;33060;50.178;7.570;2024-02-04T08:08:05;1.77;;;0.40;;
47329;SDS011;33060;50.178;7.570;2024-02-04T08:10:32;1.33;;;0.10;;
47329;SDS011;33060;50.178;7.570;2024-02-04T08:12:59;0.98;;;0.17;;
47329;SDS011;33060;50.178;7.570;2024-02-04T08:15:25;0.70;;;0.10;;
47329;SDS011;33060;50.178;7.570;2024-02-04T08:17:52;1.00;;;0.10;;
47329;SDS011;33060;50.178;7.570;2024-02-04T08:22:47;1.33;;;0.20;;
47329;SDS011;33060;50.178;7.570;2024-02-04T08:25:15;1.00;;;0.30;;
47329;SDS011;33060;50.178;7.570;2024-02-04T08:27:42;1.17;;;0.15;;
47329;SDS011;33060;50.178;7.570;2024-02-04T08:30:09;1.05;;;0.20;;
47329;SDS011;33060;50.178;7.570;2024-02-04T08:32:38;1.15;;;0.22;;
47329;SDS011;33060;50.178;7.570;2024-02-04T08:35:05;0.52;;;0.05;;
47329;SDS011;33060;50.178;7.570;2024-02-04T08:37:32;1.58;;;0.20;;
47329;SDS011;33060;50.178;7.570;2024-02-04T08:40:02;1.40;;;0.20;;
47329;SDS011;33060;50.178;7.570;2024-02-04T08:42:30;1.75;;;0.20;;
47329;SDS011;33060;50.178;7.570;2024-02-04T08:44:57;0.82;;;0.10;;
47329;SDS011;33060;50.178;7.570;2024-02-04T08:47:24;1.33;;;0.10;;
47329;SDS011;33060;50.178;7.570;2024-02-04T08:49:51;1.20;;;0.25;;
47329;SDS011;33060;50.178;7.570;2024-02-04T08:52:18;0.95;;;0.15;;
47329;SDS011;33060;50.178;7.570;2024-02-04T08:54:45;1.33;;;0.20;;
47329;SDS011;33060;50.178;7.570;2024-02-04T08:57:12;1.13;;;0.20;;
47329;SDS011;33060;50.178;7.570;2024-02-04T08:59:38;1.02;;;0.20;;
47329;SDS011;33060;50.178;7.570;2024-02-04T09:02:05;2.00;;;0.20;;
47329;SDS011;33060;50.178;7.570;2024-02-04T09:04:36;1.17;;;0.13;;
47329;SDS011;33060;50.178;7.570;2024-02-04T09:07:07;1.08;;;0.20;;
47329;SDS011;33060;50.178;7.570;2024-02-04T09:09:34;1.92;;;0.40;;
47329;SDS011;33060;50.178;7.570;2024-02-04T09:14:28;1.25;;;0.30;;
47329;SDS011;33060;50.178;7.570;2024-02-04T09:16:55;1.27;;;0.30;;
47329;SDS011;33060;50.178;7.570;2024-02-04T09:19:21;0.90;;;0.20;;
47329;SDS011;33060;50.178;7.570;2024-02-04T09:21:49;0.50;;;0.00;;
47329;SDS011;33060;50.178;7.570;2024-02-04T09:24:16;1.15;;;0.10;;
47329;SDS011;33060;50.178;7.570;2024-02-04T09:29:09;1.02;;;0.10;;
47329;SDS011;33060;50.178;7.570;2024-02-04T09:31:36;1.00;;;0.20;;
47329;SDS011;33060;50.178;7.570;2024-02-04T09:34:03;0.73;;;0.13;;
47329;SDS011;33060;50.178;7.570;2024-02-04T09:36:30;0.80;;;0.20;;
47329;SDS011;33060;50.178;7.570;2024-02-04T09:38:57;1.52;;;0.25;;
47329;SDS011;33060;50.178;7.570;2024-02-04T09:43:53;1.40;;;0.40;;
47329;SDS011;33060;50.178;7.570;2024-02-04T09:46:20;1.27;;;0.30;;
47329;SDS011;33060;50.178;7.570;2024-02-04T09:48:47;1.50;;;0.40;;
47329;SDS011;33060;50.178;7.570;2024-02-04T09:51:16;1.92;;;0.32;;
47329;SDS011;33060;50.178;7.570;2024-02-04T09:53:44;2.00;;;0.40;;
47329;SDS011;33060;50.178;7.570;2024-02-04T09:56:11;1.63;;;0.40;;
47329;SDS011;33060;50.178;7.570;2024-02-04T09:58:41;1.20;;;0.20;;
47329;SDS011;33060;50.178;7.570;2024-02-04T10:01:07;1.48;;;0.30;;
47329;SDS011;33060;50.178;7.570;2024-02-04T10:03:35;2.10;;;0.30;;
47329;SDS011;33060;50.178;7.570;2024-02-04T10:06:02;1.30;;;0.20;;
47329;SDS011;33060;50.178;7.570;2024-02-04T10:08:29;2.00;;;0.70;;
47329;SDS011;33060;50.178;7.570;2024-02-04T10:10:57;1.27;;;0.20;;
47329;SDS011;33060;50.178;7.570;2024-02-04T10:13:25;2.38;;;0.70;;
47329;SDS011;33060;50.178;7.570;2024-02-04T10:15:52;2.58;;;1.10;;
47329;SDS011;33060;50.178;7.570;2024-02-04T10:18:19;1.42;;;0.30;;
47329;SDS011;33060;50.178;7.570;2024-02-04T10:20:47;1.67;;;0.20;;
47329;SDS011;33060;50.178;7.570;2024-02-04T10:23:14;1.38;;;0.40;;
47329;SDS011;33060;50.178;7.570;2024-02-04T10:25:40;1.40;;;0.22;;
47329;SDS011;33060;50.178;7.570;2024-02-04T10:28:07;1.52;;;0.20;;
47329;SDS011;33060;50.178;7.570;2024-02-04T10:33:03;1.52;;;0.38;;
47329;SDS011;33060;50.178;7.570;2024-02-04T10:35:30;1.50;;;0.30;;
47329;SDS011;33060;50.178;7.570;2024-02-04T10:40:24;1.00;;;0.20;;
47329;SDS011;33060;50.178;7.570;2024-02-04T10:45:21;1.30;;;0.30;;
47329;SDS011;33060;50.178;7.570;2024-02-04T10:47:54;1.10;;;0.20;;
47329;SDS011;33060;50.178;7.570;2024-02-04T10:50:24;1.42;;;0.20;;
47329;SDS011;33060;50.178;7.570;2024-02-04T10:52:52;0.80;;;0.10;;
47329;SDS011;33060;50.178;7.570;2024-02-04T10:55:26;0.93;;;0.20;;
47329;SDS011;33060;50.178;7.570;2024-02-04T10:57:55;1.42;;;0.30;;
47329;SDS011;33060;50.178;7.570;2024-02-04T11:00:22;1.40;;;0.30;;
47329;SDS011;33060;50.178;7.570;2024-02-04T11:02:49;3.75;;;0.50;;
47329;SDS011;33060;50.178;7.570;2024-02-04T11:05:20;1.20;;;0.28;;
47329;SDS011;33060;50.178;7.570;2024-02-04T11:07:49;1.60;;;0.40;;
47329;SDS011;33060;50.178;7.570;2024-02-04T11:10:17;1.60;;;0.50;;
47329;SDS011;33060;50.178;7.570;2024-02-04T11:12:46;2.15;;;0.40;;
47329;SDS011;33060;50.178;7.570;2024-02-04T11:15:15;1.20;;;0.30;;
47329;SDS011;33060;50.178;7.570;2024-02-04T11:26:01;1.35;;;0.20;;
47329;SDS011;33060;50.178;7.570;2024-02-04T11:28:28;1.40;;;0.22;;
47329;SDS011;33060;50.178;7.570;2024-02-04T11:30:55;2.50;;;1.00;;
47329;SDS011;33060;50.178;7.570;2024-02-04T11:33:23;1.05;;;0.10;;
47329;SDS011;33060;50.178;7.570;2024-02-04T11:35:59;1.42;;;0.10;;
47329;SDS011;33060;50.178;7.570;2024-02-04T11:38:35;0.63;;;0.00;;
47329;SDS011;33060;50.178;7.570;2024-02-04T11:41:03;0.80;;;0.10;;
47329;SDS011;33060;50.178;7.570;2024-02-04T11:43:33;1.10;;;0.30;;
47329;SDS011;33060;50.178;7.570;2024-02-04T11:46:05;1.15;;;0.10;;
47329;SDS011;33060;50.178;7.570;2024-02-04T11:48:33;0.85;;;0.20;;
47329;SDS011;33060;50.178;7.570;2024-02-04T11:51:02;2.00;;;0.10;;
47329;SDS011;33060;50.178;7.570;2024-02-04T11:53:31;0.98;;;0.10;;
47329;SDS011;33060;50.178;7.570;2024-02-04T11:56:01;1.20;;;0.32;;
47329;SDS011;33060;50.178;7.570;2024-02-04T11:58:30;1.15;;;0.22;;
47329;SDS011;33060;50.178;7.570;2024-02-04T12:00:58;1.33;;;0.00;;
47329;SDS011;33060;50.178;7.570;2024-02-04T12:03:31;1.17;;;0.20;;
47329;SDS011;33060;50.178;7.570;2024-02-04T12:06:00;1.55;;;0.30;;
47329;SDS011;33060;50.178;7.570;2024-02-04T12:08:28;2.00;;;0.50;;
47329;SDS011;33060;50.178;7.570;2024-02-04T12:10:56;0.90;;;0.10;;
47329;SDS011;33060;50.178;7.570;2024-02-04T12:13:24;2.28;;;0.57;;
47329;SDS011;33060;50.178;7.570;2024-02-04T12:15:51;1.40;;;0.40;;
47329;SDS011;33060;50.178;7.570;2024-02-04T12:20:47;1.35;;;0.20;;
47329;SDS011;33060;50.178;7.570;2024-02-04T12:23:17;1.20;;;0.10;;
47329;SDS011;33060;50.178;7.570;2024-02-04T12:25:45;1.10;;;0.10;;
47329;SDS011;33060;50.178;7.570;2024-02-04T12:28:12;2.13;;;0.30;;
47329;SDS011;33060;50.178;7.570;2024-02-04T12:30:40;1.70;;;0.38;;
47329;SDS011;33060;50.178;7.570;2024-02-04T12:33:20;1.92;;;0.40;;
47329;SDS011;33060;50.178;7.570;2024-02-04T12:35:51;1.20;;;0.17;;
47329;SDS011;33060;50.178;7.570;2024-02-04T12:38:19;1.75;;;0.17;;
47329;SDS011;33060;50.178;7.570;2024-02-04T12:40:47;1.10;;;0.10;;
47329;SDS011;33060;50.178;7.570;2024-02-04T12:43:14;1.20;;;0.30;;
47329;SDS011;33060;50.178;7.570;2024-02-04T12:45:43;1.05;;;0.10;;
47329;SDS011;33060;50.178;7.570;2024-02-04T12:48:14;1.63;;;0.30;;
47329;SDS011;33060;50.178;7.570;2024-02-04T12:50:47;1.10;;;0.10;;
47329;SDS011;33060;50.178;7.570;2024-02-04T12:53:18;1.67;;;0.43;;
47329;SDS011;33060;50.178;7.570;2024-02-04T12:55:57;1.30;;;0.20;;
47329;SDS011;33060;50.178;7.570;2024-02-04T12:58:28;0.93;;;0.10;;
47329;SDS011;33060;50.178;7.570;2024-02-04T13:01:01;0.80;;;0.13;;
47329;SDS011;33060;50.178;7.570;2024-02-04T13:03:33;0.80;;;0.00;;
47329;SDS011;33060;50.178;7.570;2024-02-04T13:06:02;0.57;;;0.00;;
47329;SDS011;33060;50.178;7.570;2024-02-04T13:08:30;0.82;;;0.00;;
47329;SDS011;33060;50.178;7.570;2024-02-04T13:11:01;0.47;;;0.00;;
47329;SDS011;33060;50.178;7.570;2024-02-04T13:13:34;0.47;;;0.00;;
47329;SDS011;33060;50.178;7.570;2024-02-04T13:16:04;0.43;;;0.00;;
47329;SDS011;33060;50.178;7.570;2024-02-04T13:18:32;1.48;;;0.00;;
47329;SDS011;33060;50.178;7.570;2024-02-04T13:21:01;0.90;;;0.10;;
47329;SDS011;33060;50.178;7.570;2024-02-04T13:23:31;0.68;;;0.10;;
47329;SDS011;33060;50.178;7.570;2024-02-04T13:26:03;0.80;;;0.10;;
47329;SDS011;33060;50.178;7.570;2024-02-04T13:28:30;0.70;;;0.08;;
47329;SDS011;33060;50.178;7.570;2024-02-04T13:31:01;0.95;;;0.10;;
47329;SDS011;33060;50.178;7.570;2024-02-04T13:33:30;1.63;;;0.20;;
47329;SDS011;33060;50.178;7.570;2024-02-04T13:36:06;0.93;;;0.03;;
47329;SDS011;33060;50.178;7.570;2024-02-04T13:38:38;0.55;;;0.00;;
47329;SDS011;33060;50.178;7.570;2024-02-04T13:41:06;1.00;;;0.20;;
47329;SDS011;33060;50.178;7.570;2024-02-04T13:43:38;0.90;;;0.10;;
47329;SDS011;33060;50.178;7.570;2024-02-04T13:46:06;0.73;;;0.03;;
47329;SDS011;33060;50.178;7.570;2024-02-04T13:48:37;1.10;;;0.20;;
47329;SDS011;33060;50.178;7.570;2024-02-04T13:51:06;0.73;;;0.10;;
47329;SDS011;33060;50.178;7.570;2024-02-04T13:53:38;0.80;;;0.03;;
47329;SDS011;33060;50.178;7.570;2024-02-04T13:56:05;0.90;;;0.17;;
47329;SDS011;33060;50.178;7.570;2024-02-04T13:58:32;0.80;;;0.00;;
47329;SDS011;33060;50.178;7.570;2024-02-04T14:01:02;1.27;;;0.10;;
47329;SDS011;33060;50.178;7.570;2024-02-04T14:03:29;0.93;;;0.15;;
47329;SDS011;33060;50.178;7.570;2024-02-04T14:05:56;0.68;;;0.10;;
47329;SDS011;33060;50.178;7.570;2024-02-04T14:10:50;0.50;;;0.10;;
47329;SDS011;33060;50.178;7.570;2024-02-04T14:13:17;1.13;;;0.00;;
47329;SDS011;33060;50.178;7.570;2024-02-04T14:15:43;0.57;;;0.00;;
47329;SDS011;33060;50.178;7.570;2024-02-04T14:18:10;0.73;;;0.10;;
47329;SDS011;33060;50.178;7.570;2024-02-04T14:20:37;0.68;;;0.10;;
47329;SDS011;33060;50.178;7.570;2024-02-04T14:23:04;0.85;;;0.17;;
47329;SDS011;33060;50.178;7.570;2024-02-04T14:25:31;0.85;;;0.10;;
47329;SDS011;33060;50.178;7.570;2024-02-04T14:30:24;1.02;;;0.10;;
47329;SDS011;33060;50.178;7.570;2024-02-04T14:32:51;0.63;;;0.08;;
47329;SDS011;33060;50.178;7.570;2024-02-04T14:37:45;0.70;;;0.00;;
47329;SDS011;33060;50.178;7.570;2024-02-04T14:40:12;1.58;;;0.10;;
47329;SDS011;33060;50.178;7.570;2024-02-04T14:42:38;1.30;;;0.10;;
47329;SDS011;33060;50.178;7.570;2024-02-04T14:45:08;1.00;;;0.10;;
47329;SDS011;33060;50.178;7.570;2024-02-04T14:47:38;1.20;;;0.20;;
47329;SDS011;33060;50.178;7.570;2024-02-04T14:50:05;0.60;;;0.00;;
47329;SDS011;33060;50.178;7.570;2024-02-04T14:52:33;1.35;;;0.20;;
47329;SDS011;33060;50.178;7.570;2024-02-04T14:55:00;0.70;;;0.17;;
47329;SDS011;33060;50.178;7.570;2024-02-04T14:57:28;0.57;;;0.00;;
47329;SDS011;33060;50.178;7.570;2024-02-04T14:59:56;1.45;;;0.22;;
47329;SDS011;33060;50.178;7.570;2024-02-04T15:02:23;2.47;;;0.60;;
47329;SDS011;33060;50.178;7.570;2024-02-04T15:07:16;1.92;;;0.28;;
47329;SDS011;33060;50.178;7.570;2024-02-04T15:12:10;2.67;;;0.80;;
47329;SDS011;33060;50.178;7.570;2024-02-04T15:14:40;1.50;;;0.20;;
47329;SDS011;33060;50.178;7.570;2024-02-04T15:17:07;0.93;;;0.00;;
47329;SDS011;33060;50.178;7.570;2024-02-04T15:19:34;2.35;;;0.70;;
47329;SDS011;33060;50.178;7.570;2024-02-04T15:22:03;2.22;;;0.95;;
47329;SDS011;33060;50.178;7.570;2024-02-04T15:24:30;2.25;;;0.50;;
47329;SDS011;33060;50.178;7.570;2024-02-04T15:26:56;2.03;;;0.65;;
47329;SDS011;33060;50.178;7.570;2024-02-04T15:29:34;2.38;;;1.00;;
47329;SDS011;33060;50.178;7.570;2024-02-04T15:32:02;1.85;;;0.60;;
47329;SDS011;33060;50.178;7.570;2024-02-04T15:34:30;1.90;;;0.70;;
47329;SDS011;33060;50.178;7.570;2024-02-04T15:36:59;1.90;;;0.60;;
47329;SDS011;33060;50.178;7.570;2024-02-04T15:39:26;1.27;;;0.10;;
47329;SDS011;33060;50.178;7.570;2024-02-04T15:41:53;2.15;;;0.60;;
47329;SDS011;33060;50.178;7.570;2024-02-04T15:44:19;2.05;;;0.75;;
47329;SDS011;33060;50.178;7.570;2024-02-04T15:46:48;1.60;;;0.40;;
47329;SDS011;33060;50.178;7.570;2024-02-04T15:49:20;1.60;;;0.20;;
47329;SDS011;33060;50.178;7.570;2024-02-04T15:51:48;1.00;;;0.20;;
47329;SDS011;33060;50.178;7.570;2024-02-04T15:54:15;1.20;;;0.15;;
47329;SDS011;33060;50.178;7.570;2024-02-04T15:56:42;0.88;;;0.00;;
47329;SDS011;33060;50.178;7.570;2024-02-04T15:59:12;0.80;;;0.10;;
47329;SDS011;33060;50.178;7.570;2024-02-04T16:01:40;2.65;;;0.75;;
47329;SDS011;33060;50.178;7.570;2024-02-04T16:04:07;1.60;;;0.30;;
47329;SDS011;33060;50.178;7.570;2024-02-04T16:06:35;1.08;;;0.10;;
47329;SDS011;33060;50.178;7.570;2024-02-04T16:09:02;1.25;;;0.28;;
47329;SDS011;33060;50.178;7.570;2024-02-04T16:11:38;1.08;;;0.10;;
47329;SDS011;33060;50.178;7.570;2024-02-04T16:14:10;1.88;;;0.52;;
47329;SDS011;33060;50.178;7.570;2024-02-04T16:16:41;1.10;;;0.22;;
47329;SDS011;33060;50.178;7.570;2024-02-04T16:19:12;1.00;;;0.20;;
47329;SDS011;33060;50.178;7.570;2024-02-04T16:21:40;1.25;;;0.25;;
47329;SDS011;33060;50.178;7.570;2024-02-04T16:26:33;1.35;;;0.20;;
47329;SDS011;33060;50.178;7.570;2024-02-04T16:29:00;1.38;;;0.30;;
47329;SDS011;33060;50.178;7.570;2024-02-04T16:31:27;1.27;;;0.30;;
47329;SDS011;33060;50.178;7.570;2024-02-04T16:33:54;1.08;;;0.15;;
47329;SDS011;33060;50.178;7.570;2024-02-04T16:36:22;0.93;;;0.20;;
47329;SDS011;33060;50.178;7.570;2024-02-04T16:38:49;1.20;;;0.00;;
47329;SDS011;33060;50.178;7.570;2024-02-04T16:41:15;1.55;;;0.77;;
47329;SDS011;33060;50.178;7.570;2024-02-04T16:43:43;1.85;;;0.90;;
47329;SDS011;33060;50.178;7.570;2024-02-04T16:46:10;1.13;;;0.15;;